Time;durP1;ratioP1;P1;durP2;ratioP2;P2;SDS_P1;SDS_P2;PMS_P1;PMS_P2;Temp;Humidity;BMP_temperature;BMP_pressure;BME280_temperature;BME280_humidity;BME280_pressure;Samples;Min_cycle;Max_cycle;Signal;HPM_P1;HPM_P2
2022/05/29 00:02:05;;;;;;;15.68;4.88;;;10.50;99.90;;;;;;5042079;28;20487;-44
2022/05/29 00:04:39;;;;;;;12.13;4.32;;;10.50;99.90;;;;;;5041598;28;20432;-45
2022/05/29 00:07:06;;;;;;;12.43;4.53;;;10.50;99.90;;;;;;5043906;28;20060;-44
2022/05/29 00:09:44;;;;;;;9.95;3.80;;;10.40;99.90;;;;;;5043092;28;20496;-43
2022/05/29 00:12:17;;;;;;;10.70;4.13;;;10.50;99.90;;;;;;5042794;28;20045;-46
2022/05/29 00:14:52;;;;;;;14.40;5.00;;;10.50;99.90;;;;;;5039355;28;20384;-45
2022/05/29 00:17:20;;;;;;;17.27;4.97;;;10.50;99.90;;;;;;5043334;28;20273;-43
2022/05/29 00:19:46;;;;;;;13.52;4.93;;;10.50;99.90;;;;;;5042044;28;20539;-44
2022/05/29 00:22:16;;;;;;;14.23;5.40;;;10.50;99.90;;;;;;5045634;28;20394;-44
2022/05/29 00:24:44;;;;;;;12.88;4.35;;;10.40;99.90;;;;;;5025333;28;20053;-43
2022/05/29 00:27:11;;;;;;;14.30;4.30;;;10.30;99.90;;;;;;5044822;28;20163;-44
2022/05/29 00:29:38;;;;;;;15.68;4.55;;;10.20;99.90;;;;;;5048073;28;20076;-44
2022/05/29 00:32:26;;;;;;;14.25;4.50;;;10.10;99.90;;;;;;5045309;28;20080;-46
2022/05/29 00:34:52;;;;;;;14.25;3.83;;;10.00;99.90;;;;;;5045580;28;20060;-43
2022/05/29 00:37:17;;;;;;;17.58;4.57;;;10.00;99.90;;;;;;5046524;28;20053;-44
2022/05/29 00:39:50;;;;;;;16.42;4.40;;;10.00;99.90;;;;;;5041405;28;20048;-43
2022/05/29 00:42:20;;;;;;;15.85;4.63;;;9.90;99.90;;;;;;5027657;28;20164;-43
2022/05/29 00:44:46;;;;;;;17.80;4.50;;;9.80;99.90;;;;;;5046294;28;20075;-45
2022/05/29 00:47:13;;;;;;;11.98;3.95;;;9.70;99.90;;;;;;5046233;28;20065;-46
2022/05/29 00:49:41;;;;;;;17.70;5.15;;;9.70;99.90;;;;;;5047851;28;20128;-43
2022/05/29 00:52:16;;;;;;;11.13;3.90;;;9.60;99.90;;;;;;5026543;28;20053;-47
2022/05/29 00:55:13;;;;;;;14.23;3.70;;;9.60;99.90;;;;;;5048269;28;20061;-46
2022/05/29 00:57:55;;;;;;;9.98;3.22;;;9.50;99.90;;;;;;4964283;28;20226;-49
2022/05/29 01:00:25;;;;;;;14.07;4.18;;;9.40;99.90;;;;;;4964921;28;20050;-45
2022/05/29 01:02:53;;;;;;;16.77;3.78;;;9.40;99.90;;;;;;4964620;28;20102;-45
2022/05/29 01:05:33;;;;;;;14.63;3.70;;;9.40;99.90;;;;;;4961718;28;20054;-43
2022/05/29 01:08:24;;;;;;;10.80;3.50;;;9.30;99.90;;;;;;4963393;28;20113;-44
2022/05/29 01:10:50;;;;;;;15.65;4.68;;;9.30;99.90;;;;;;4960765;28;20086;-44
2022/05/29 01:13:55;;;;;;;14.40;3.92;;;9.30;99.90;;;;;;4945910;29;20557;-46
2022/05/29 01:16:41;;;;;;;13.32;3.75;;;9.30;99.90;;;;;;4956054;28;20142;-45
2022/05/29 01:19:41;;;;;;;11.98;2.88;;;9.30;99.90;;;;;;4963714;28;20050;-42
2022/05/29 01:22:27;;;;;;;13.02;3.45;;;9.30;99.90;;;;;;4960286;28;20070;-45
2022/05/29 01:25:17;;;;;;;10.50;3.50;;;9.30;99.90;;;;;;4947531;28;20592;-43
2022/05/29 01:28:21;;;;;;;7.55;3.20;;;9.40;99.90;;;;;;4954589;28;20101;-43
2022/05/29 01:31:12;;;;;;;11.25;3.08;;;9.40;99.90;;;;;;4900309;29;20162;-44
2022/05/29 01:33:47;;;;;;;10.60;3.60;;;9.50;99.90;;;;;;4908726;28;20115;-44
2022/05/29 01:37:03;;;;;;;14.65;5.10;;;9.50;99.90;;;;;;4962017;28;20154;-47
2022/05/29 01:40:11;;;;;;;9.57;4.03;;;9.50;99.90;;;;;;4908275;29;20059;-43
2022/05/29 01:42:49;;;;;;;12.18;4.55;;;9.60;99.90;;;;;;4843723;29;20145;-45
2022/05/29 01:45:21;;;;;;;9.50;3.80;;;9.60;99.90;;;;;;4834025;29;20053;-43
2022/05/29 01:48:07;;;;;;;11.75;4.15;;;9.60;99.90;;;;;;4838352;29;20053;-47
2022/05/29 01:50:43;;;;;;;10.73;3.78;;;9.60;99.90;;;;;;4833284;29;20062;-44
2022/05/29 01:53:26;;;;;;;13.00;4.20;;;9.60;99.90;;;;;;4845810;29;20061;-46
2022/05/29 01:55:56;;;;;;;12.55;3.90;;;9.60;99.90;;;;;;4828718;29;20746;-44
2022/05/29 01:58:43;;;;;;;10.82;4.03;;;9.60;99.90;;;;;;4825603;29;20062;-44
2022/05/29 02:01:13;;;;;;;12.00;4.15;;;9.60;99.90;;;;;;4828553;29;20073;-44
2022/05/29 02:03:52;;;;;;;9.23;4.40;;;9.60;99.90;;;;;;4844965;29;20085;-45
2022/05/29 02:07:47;;;;;;;12.23;4.13;;;9.60;99.90;;;;;;4869436;29;20138;-45
2022/05/29 02:09:20;;;;;;;9.32;4.13;;;9.60;99.90;;;;;;4876702;28;20180;-43
2022/05/29 02:11:51;;;;;;;10.77;4.78;;;9.60;99.90;;;;;;4953124;28;20054;-45
2022/05/29 02:14:27;;;;;;;17.13;4.15;;;9.60;99.90;;;;;;4944252;29;20062;-46
2022/05/29 02:16:59;;;;;;;12.57;4.15;;;9.60;99.90;;;;;;4942648;28;20517;-42
2022/05/29 02:19:33;;;;;;;15.93;4.35;;;9.70;99.90;;;;;;5003794;28;20230;-41
2022/05/29 02:22:25;;;;;;;14.23;4.13;;;9.70;99.90;;;;;;5039927;28;20136;-44
2022/05/29 02:24:56;;;;;;;12.23;4.63;;;9.70;99.90;;;;;;5044333;28;20057;-42
2022/05/29 02:27:31;;;;;;;13.85;4.82;;;9.80;99.90;;;;;;5021904;28;20524;-45
2022/05/29 02:29:58;;;;;;;14.65;4.32;;;9.80;99.90;;;;;;5042950;28;20107;-44
2022/05/29 02:32:47;;;;;;;12.68;4.15;;;9.80;99.90;;;;;;5042899;28;20068;-44
2022/05/29 02:35:48;;;;;;;15.27;4.10;;;9.90;99.90;;;;;;5042509;28;20563;-43
2022/05/29 02:38:21;;;;;;;11.02;4.60;;;9.90;99.90;;;;;;5036504;28;20047;-44
2022/05/29 02:41:07;;;;;;;12.40;3.85;;;9.90;99.90;;;;;;5043710;28;20140;-44
2022/05/29 02:43:42;;;;;;;13.25;4.43;;;9.90;99.90;;;;;;5044290;28;20048;-43
2022/05/29 02:46:47;;;;;;;14.88;4.45;;;9.90;99.90;;;;;;5042876;28;20098;-43
2022/05/29 02:49:37;;;;;;;15.30;4.65;;;10.00;99.90;;;;;;5039263;28;20147;-46
2022/05/29 02:52:11;;;;;;;17.73;4.90;;;9.90;99.90;;;;;;5020525;28;20057;-43
2022/05/29 02:54:38;;;;;;;13.02;4.00;;;10.00;99.90;;;;;;5040831;28;20049;-44
2022/05/29 02:57:08;;;;;;;14.35;4.00;;;10.00;99.90;;;;;;5024020;28;20056;-43
2022/05/29 02:59:48;;;;;;;18.10;4.55;;;10.00;99.90;;;;;;5009991;28;20060;-44
2022/05/29 03:02:26;;;;;;;20.17;4.47;;;10.00;99.90;;;;;;5024703;28;20060;-43
2022/05/29 03:05:29;;;;;;;14.48;5.55;;;10.00;99.90;;;;;;5031776;28;20475;-42
2022/05/29 03:08:22;;;;;;;12.25;3.72;;;10.10;99.90;;;;;;5040426;28;20048;-44
2022/05/29 03:10:58;;;;;;;11.45;4.10;;;10.00;99.90;;;;;;5025085;28;20048;-43
2022/05/29 03:13:48;;;;;;;12.57;4.45;;;10.10;99.90;;;;;;5041770;28;20124;-45
2022/05/29 03:16:24;;;;;;;11.52;3.85;;;10.10;99.90;;;;;;5037000;28;20052;-42
2022/05/29 03:19:27;;;;;;;12.15;3.55;;;10.10;99.90;;;;;;5039815;28;20057;-44
2022/05/29 03:22:30;;;;;;;10.48;3.97;;;10.00;99.90;;;;;;5047661;28;20514;-45
2022/05/29 03:25:19;;;;;;;13.52;4.50;;;10.00;99.90;;;;;;5040133;28;20218;-44
2022/05/29 03:28:07;;;;;;;17.05;4.60;;;9.90;99.90;;;;;;5041399;28;20045;-49
2022/05/29 03:30:46;;;;;;;12.85;3.95;;;10.00;99.90;;;;;;5043683;28;20041;-44
2022/05/29 03:33:41;;;;;;;11.77;4.03;;;9.90;99.90;;;;;;5046587;28;20053;-47
2022/05/29 03:36:15;;;;;;;11.32;3.22;;;9.90;99.90;;;;;;5047569;28;20130;-45
2022/05/29 03:38:47;;;;;;;10.13;4.68;;;9.90;99.90;;;;;;5042379;28;20052;-44
2022/05/29 03:41:22;;;;;;;15.40;3.67;;;9.90;99.90;;;;;;5041060;28;20045;-43
2022/05/29 03:43:47;;;;;;;7.57;3.38;;;9.90;99.90;;;;;;5019192;28;20053;-45
2022/05/29 03:46:18;;;;;;;11.40;3.42;;;9.90;99.90;;;;;;5039381;28;20075;-44
2022/05/29 03:48:44;;;;;;;11.68;3.63;;;9.90;99.90;;;;;;5045998;28;20512;-44
2022/05/29 03:51:09;;;;;;;10.55;3.10;;;9.90;99.90;;;;;;5015763;28;20059;-43
2022/05/29 03:53:35;;;;;;;13.70;3.70;;;9.80;99.90;;;;;;5039930;28;20434;-46
2022/05/29 03:56:04;;;;;;;9.93;3.58;;;9.90;99.90;;;;;;5044594;28;20055;-45
2022/05/29 03:58:30;;;;;;;16.00;4.25;;;9.80;99.90;;;;;;5050213;28;20037;-43
2022/05/29 04:00:56;;;;;;;11.77;3.70;;;9.90;99.90;;;;;;5048190;28;20064;-45
2022/05/29 04:03:27;;;;;;;11.23;3.38;;;9.90;99.90;;;;;;5047836;28;20049;-44
2022/05/29 04:05:53;;;;;;;12.18;3.80;;;9.80;99.90;;;;;;5043314;28;20119;-45
2022/05/29 04:13:50;;;;;;;11.32;2.97;;;9.90;99.90;;;;;;5043849;28;20495;-44
2022/05/29 04:16:25;;;;;;;10.27;3.20;;;9.90;99.90;;;;;;5029654;28;20520;-43
2022/05/29 04:19:00;;;;;;;13.30;3.63;;;9.90;99.90;;;;;;5048594;28;20049;-43
2022/05/29 04:21:41;;;;;;;8.55;3.60;;;10.00;99.90;;;;;;5047564;28;20410;-43
2022/05/29 04:24:07;;;;;;;11.38;3.50;;;10.00;99.90;;;;;;5049506;28;20045;-43
2022/05/29 04:26:36;;;;;;;11.18;3.35;;;10.10;99.90;;;;;;5048428;28;20059;-45
2022/05/29 04:29:03;;;;;;;11.20;3.17;;;10.10;99.90;;;;;;5047980;28;20053;-44
2022/05/29 04:34:32;;;;;;;13.90;3.47;;;10.20;99.90;;;;;;5049276;28;20053;-43
2022/05/29 04:36:59;;;;;;;9.45;2.92;;;10.20;99.90;;;;;;5050110;28;20373;-44
2022/05/29 04:39:36;;;;;;;15.88;4.15;;;10.10;99.90;;;;;;5049113;28;20871;-44
2022/05/29 04:42:05;;;;;;;9.00;3.35;;;10.10;99.90;;;;;;5047445;28;20658;-48
2022/05/29 04:44:32;;;;;;;10.75;3.25;;;10.10;99.90;;;;;;5047817;28;20051;-44
2022/05/29 04:46:59;;;;;;;10.18;3.13;;;10.20;99.90;;;;;;5049375;28;20053;-44
2022/05/29 04:49:25;;;;;;;11.73;4.15;;;10.30;99.90;;;;;;5048417;28;20399;-45
2022/05/29 04:51:50;;;;;;;12.88;3.60;;;10.30;99.90;;;;;;5047814;28;20384;-45
2022/05/29 04:54:16;;;;;;;13.43;3.05;;;10.40;99.90;;;;;;5047039;28;20136;-44
2022/05/29 04:56:49;;;;;;;13.75;3.50;;;10.40;99.90;;;;;;5048639;28;20127;-44
2022/05/29 04:59:24;;;;;;;11.02;2.85;;;10.50;99.90;;;;;;5047753;28;20137;-46
2022/05/29 05:02:01;;;;;;;13.52;3.33;;;10.50;99.90;;;;;;5045998;28;20052;-44
2022/05/29 05:04:27;;;;;;;13.52;4.00;;;10.70;99.90;;;;;;5045702;28;20044;-45
2022/05/29 05:06:55;;;;;;;9.35;2.83;;;10.80;99.90;;;;;;5027838;28;20052;-44
2022/05/29 05:09:22;;;;;;;11.25;3.55;;;10.90;99.90;;;;;;5028365;28;20191;-46
2022/05/29 05:11:47;;;;;;;12.93;3.30;;;11.10;99.90;;;;;;5045602;28;20127;-44
2022/05/29 05:14:13;;;;;;;10.95;3.03;;;11.20;99.90;;;;;;5046186;28;20178;-45
2022/05/29 05:16:39;;;;;;;12.32;3.20;;;11.20;99.90;;;;;;5039989;28;20052;-44
2022/05/29 05:19:10;;;;;;;8.27;2.65;;;11.30;99.90;;;;;;5043945;28;20416;-47
2022/05/29 05:21:42;;;;;;;7.20;2.90;;;11.60;99.90;;;;;;5045219;28;20036;-43
2022/05/29 05:24:08;;;;;;;9.52;3.38;;;11.70;99.90;;;;;;5041953;28;20041;-44
2022/05/29 05:26:36;;;;;;;13.80;2.65;;;11.70;99.90;;;;;;5043131;28;20428;-45
2022/05/29 05:29:17;;;;;;;8.65;2.85;;;11.60;99.90;;;;;;5042883;28;20511;-46
2022/05/29 05:31:43;;;;;;;12.27;2.80;;;11.50;99.90;;;;;;5020752;28;20561;-44
2022/05/29 05:34:08;;;;;;;10.07;3.08;;;11.40;99.90;;;;;;5003471;28;20057;-45
2022/05/29 05:36:36;;;;;;;11.68;2.97;;;11.30;99.90;;;;;;5039454;28;20143;-45
2022/05/29 05:39:02;;;;;;;8.85;3.00;;;11.30;99.90;;;;;;5042793;28;20045;-47
2022/05/29 05:41:28;;;;;;;10.20;2.92;;;11.30;99.90;;;;;;5043404;28;20059;-44
2022/05/29 05:43:54;;;;;;;11.00;3.13;;;11.30;99.90;;;;;;5042631;28;20088;-45
2022/05/29 05:46:20;;;;;;;11.65;3.17;;;11.20;99.90;;;;;;5039988;28;20704;-43
2022/05/29 05:48:46;;;;;;;13.23;3.28;;;11.20;99.90;;;;;;5041478;28;20072;-44
2022/05/29 05:51:13;;;;;;;16.15;2.70;;;11.20;99.90;;;;;;5042491;28;20057;-44
2022/05/29 05:53:40;;;;;;;13.48;2.83;;;11.20;99.90;;;;;;5044538;28;20049;-44
2022/05/29 05:56:15;;;;;;;19.13;3.97;;;11.30;99.90;;;;;;5039194;28;20045;-45
2022/05/29 05:58:45;;;;;;;14.80;3.30;;;11.30;99.90;;;;;;5040984;28;20049;-43
2022/05/29 06:01:15;;;;;;;11.85;3.00;;;11.20;99.90;;;;;;5041393;28;20363;-43
2022/05/29 06:03:41;;;;;;;19.92;4.15;;;11.20;99.90;;;;;;5025210;28;20096;-43
2022/05/29 06:06:08;;;;;;;13.95;3.30;;;11.20;99.90;;;;;;5039566;28;20175;-43
2022/05/29 06:08:34;;;;;;;12.98;2.50;;;11.10;99.90;;;;;;5028354;28;20055;-45
2022/05/29 06:11:00;;;;;;;14.95;3.30;;;11.10;99.90;;;;;;5036464;28;20816;-47
2022/05/29 06:13:25;;;;;;;12.65;2.80;;;11.20;99.90;;;;;;5033266;28;20564;-45
2022/05/29 06:15:51;;;;;;;18.88;3.60;;;11.20;99.90;;;;;;5031870;28;20400;-44
2022/05/29 06:18:21;;;;;;;14.52;3.60;;;11.20;99.90;;;;;;5035731;28;20049;-42
2022/05/29 06:20:47;;;;;;;11.05;2.60;;;11.20;99.90;;;;;;5039980;28;20144;-46
2022/05/29 06:23:13;;;;;;;15.57;3.20;;;11.20;99.90;;;;;;5032729;28;20395;-44
2022/05/29 06:25:40;;;;;;;15.02;2.92;;;11.20;99.90;;;;;;5019697;28;20076;-44
2022/05/29 06:28:07;;;;;;;14.40;3.67;;;11.30;99.90;;;;;;5032590;28;20119;-43
2022/05/29 06:30:33;;;;;;;14.63;2.75;;;11.30;99.90;;;;;;5038996;28;20052;-45
2022/05/29 06:32:59;;;;;;;12.40;2.80;;;11.40;99.90;;;;;;5036431;28;20555;-44
2022/05/29 06:35:25;;;;;;;11.98;3.25;;;11.50;99.90;;;;;;5036968;28;20053;-46
2022/05/29 06:38:03;;;;;;;17.10;4.05;;;11.60;99.90;;;;;;5042761;28;20053;-47
2022/05/29 06:40:29;;;;;;;17.85;3.30;;;11.70;99.90;;;;;;5013265;28;20495;-47
2022/05/29 06:42:55;;;;;;;11.63;3.65;;;11.80;99.90;;;;;;5035313;28;20056;-44
2022/05/29 06:45:21;;;;;;;13.48;3.20;;;11.80;99.90;;;;;;5033948;28;20119;-46
2022/05/29 06:47:47;;;;;;;14.73;3.35;;;11.80;99.90;;;;;;5039359;28;20630;-44
2022/05/29 06:50:13;;;;;;;14.95;4.00;;;11.90;99.90;;;;;;5003359;28;20049;-43
2022/05/29 06:52:42;;;;;;;18.13;3.70;;;12.00;99.90;;;;;;5037562;28;20112;-44
2022/05/29 06:55:11;;;;;;;14.68;3.08;;;12.10;99.90;;;;;;5019622;28;20446;-45
2022/05/29 06:57:37;;;;;;;13.13;2.55;;;12.20;99.90;;;;;;5003743;28;20324;-45
2022/05/29 07:08:27;;;;;;;16.52;3.33;;;12.00;99.90;;;;;;5036942;28;20106;-44
2022/05/29 07:10:54;;;;;;;15.70;3.30;;;12.00;99.90;;;;;;5032250;28;20068;-44
2022/05/29 07:13:20;;;;;;;12.82;3.38;;;12.00;99.90;;;;;;5015586;28;20081;-45
2022/05/29 07:15:46;;;;;;;9.20;2.15;;;12.00;99.90;;;;;;5032383;28;20527;-45
2022/05/29 07:18:12;;;;;;;13.88;2.50;;;12.00;99.90;;;;;;5033668;28;20069;-44
2022/05/29 07:20:38;;;;;;;10.93;3.08;;;12.00;99.90;;;;;;5034033;28;20051;-46
2022/05/29 07:23:07;;;;;;;13.25;2.20;;;12.00;99.90;;;;;;5017625;28;20480;-42
2022/05/29 07:25:33;;;;;;;9.52;2.30;;;12.10;99.90;;;;;;5032385;28;20041;-44
2022/05/29 07:27:58;;;;;;;13.25;3.88;;;12.10;99.90;;;;;;5035541;28;20041;-43
2022/05/29 07:30:24;;;;;;;16.17;2.65;;;12.10;99.90;;;;;;5038611;28;20051;-45
2022/05/29 07:32:50;;;;;;;11.50;2.53;;;12.20;99.90;;;;;;5042584;28;20136;-44
2022/05/29 07:35:17;;;;;;;14.05;3.30;;;12.30;99.90;;;;;;5024190;28;20049;-44
2022/05/29 07:37:43;;;;;;;14.30;2.67;;;12.20;99.90;;;;;;5043445;28;20052;-44
2022/05/29 07:40:10;;;;;;;7.53;2.20;;;12.30;99.90;;;;;;5040355;28;20053;-46
2022/05/29 07:45:20;;;;;;;13.82;2.95;;;12.20;99.90;;;;;;5038482;28;20581;-45
2022/05/29 07:47:46;;;;;;;8.00;2.20;;;12.30;99.90;;;;;;5023545;28;20049;-44
2022/05/29 07:50:15;;;;;;;10.23;2.72;;;12.30;99.90;;;;;;5038065;28;20459;-46
2022/05/29 07:52:42;;;;;;;10.82;2.90;;;12.40;99.90;;;;;;5027995;28;20048;-44
2022/05/29 07:55:14;;;;;;;8.15;2.47;;;12.40;99.90;;;;;;5041726;28;20055;-44
2022/05/29 07:57:40;;;;;;;8.85;2.30;;;12.30;99.90;;;;;;5031676;28;20131;-44
2022/05/29 08:00:08;;;;;;;14.20;2.38;;;12.30;99.90;;;;;;5040781;28;20071;-44
2022/05/29 08:02:34;;;;;;;5.88;2.10;;;12.30;99.90;;;;;;5043570;28;20052;-44
2022/05/29 08:05:02;;;;;;;9.27;1.85;;;12.30;99.90;;;;;;5039278;28;20147;-44
2022/05/29 08:07:29;;;;;;;12.63;2.20;;;12.30;99.90;;;;;;5039100;28;20071;-44
2022/05/29 08:09:55;;;;;;;7.55;1.98;;;12.20;99.90;;;;;;5043516;28;20605;-44
2022/05/29 08:12:21;;;;;;;11.25;2.30;;;12.20;99.90;;;;;;5043626;28;20131;-44
2022/05/29 08:14:47;;;;;;;9.93;1.75;;;12.30;99.90;;;;;;5041904;28;20080;-46
2022/05/29 08:17:13;;;;;;;8.85;2.40;;;12.40;99.90;;;;;;5034687;28;20180;-46
2022/05/29 08:19:39;;;;;;;18.13;3.03;;;12.50;99.90;;;;;;5036411;28;20088;-44
2022/05/29 08:22:05;;;;;;;10.02;2.55;;;12.50;99.90;;;;;;5020035;28;20593;-47
2022/05/29 08:33:05;;;;;;;11.02;1.95;;;12.70;99.90;;;;;;5021575;28;20075;-45
2022/05/29 08:35:32;;;;;;;6.47;1.85;;;13.00;99.90;;;;;;5025390;28;20147;-45
2022/05/29 08:38:00;;;;;;;6.80;2.00;;;13.10;99.90;;;;;;5040443;28;20041;-45
2022/05/29 08:40:27;;;;;;;8.93;1.70;;;13.10;99.90;;;;;;5037710;28;20045;-43
2022/05/29 08:42:53;;;;;;;4.85;1.38;;;13.20;99.90;;;;;;5028974;28;20079;-45
2022/05/29 08:45:19;;;;;;;5.20;1.83;;;13.00;99.90;;;;;;5031452;28;20048;-45
2022/05/29 08:47:46;;;;;;;6.45;1.52;;;13.00;99.90;;;;;;5022966;28;20077;-44
2022/05/29 08:50:26;;;;;;;6.75;1.40;;;12.90;99.90;;;;;;5034734;28;20045;-45
2022/05/29 08:53:26;;;;;;;4.47;1.50;;;13.00;99.90;;;;;;5021032;28;20546;-47
2022/05/29 08:55:58;;;;;;;6.50;1.27;;;13.00;99.90;;;;;;4940941;29;20063;-44
2022/05/29 08:58:36;;;;;;;6.85;1.50;;;13.10;99.90;;;;;;4939674;29;20510;-44
2022/05/29 09:01:10;;;;;;;9.38;1.95;;;13.10;99.90;;;;;;4939284;28;20475;-45
2022/05/29 09:03:49;;;;;;;11.73;2.53;;;13.00;99.90;;;;;;4940757;29;20105;-45
2022/05/29 09:06:33;;;;;;;10.25;1.77;;;12.70;99.90;;;;;;4940427;29;20151;-44
2022/05/29 09:09:02;;;;;;;10.40;1.98;;;12.70;99.90;;;;;;4944656;29;20562;-44
2022/05/29 09:11:38;;;;;;;5.07;1.40;;;12.60;99.90;;;;;;4937819;28;20050;-46
2022/05/29 09:14:21;;;;;;;5.20;1.80;;;12.60;99.90;;;;;;4942479;28;20854;-44
2022/05/29 09:16:58;;;;;;;4.38;1.20;;;12.60;99.90;;;;;;4935577;28;20078;-46
2022/05/29 09:19:56;;;;;;;7.10;1.65;;;12.60;99.90;;;;;;4923371;29;20116;-46
2022/05/29 09:22:28;;;;;;;8.30;2.10;;;12.80;99.90;;;;;;4918779;28;20059;-45
2022/05/29 09:25:31;;;;;;;6.18;1.55;;;12.80;99.90;;;;;;4938124;29;20055;-45
2022/05/29 09:28:12;;;;;;;6.93;1.70;;;12.70;99.90;;;;;;4941529;28;20202;-44
2022/05/29 09:30:38;;;;;;;11.40;2.42;;;12.90;99.90;;;;;;4937424;28;20315;-43
2022/05/29 09:33:25;;;;;;;6.70;2.03;;;12.90;99.90;;;;;;5005657;28;20114;-45
2022/05/29 09:36:03;;;;;;;9.55;1.98;;;12.90;99.90;;;;;;5041852;28;20099;-45
2022/05/29 09:38:43;;;;;;;8.70;2.15;;;12.90;99.90;;;;;;5038466;28;20053;-45
2022/05/29 09:41:19;;;;;;;8.38;2.10;;;13.10;99.90;;;;;;5031842;28;20585;-45
2022/05/29 09:44:20;;;;;;;8.93;1.80;;;13.20;99.90;;;;;;5032527;28;20435;-45
2022/05/29 09:46:51;;;;;;;7.78;1.70;;;13.30;99.90;;;;;;5038722;28;20071;-44
2022/05/29 09:52:25;;;;;;;8.95;2.70;;;13.80;99.90;;;;;;4975623;28;20992;-46
2022/05/29 09:55:12;;;;;;;13.13;2.38;;;14.10;99.90;;;;;;4977484;28;20046;-45
2022/05/29 09:57:49;;;;;;;9.52;2.70;;;14.10;99.90;;;;;;4979513;28;20117;-44
2022/05/29 10:00:28;;;;;;;6.78;1.58;;;14.10;99.90;;;;;;4962161;28;20231;-45
2022/05/29 10:02:55;;;;;;;4.80;1.67;;;14.10;99.90;;;;;;4958101;28;20062;-45
2022/05/29 10:05:26;;;;;;;4.00;1.30;;;14.10;99.90;;;;;;4976666;28;20072;-45
2022/05/29 10:07:54;;;;;;;6.05;1.52;;;14.20;99.90;;;;;;4975278;28;20054;-45
2022/05/29 10:10:25;;;;;;;6.95;1.75;;;13.90;99.90;;;;;;4977568;28;20096;-45
2022/05/29 10:12:53;;;;;;;6.80;1.98;;;13.90;99.90;;;;;;4973791;28;20430;-47
2022/05/29 10:15:24;;;;;;;6.40;1.38;;;13.60;99.90;;;;;;4970363;28;20157;-44
2022/05/29 10:17:55;;;;;;;7.80;1.80;;;13.50;99.90;;;;;;4977069;28;20061;-45
2022/05/29 10:20:42;;;;;;;7.07;1.70;;;13.50;99.90;;;;;;4977361;28;20042;-46
2022/05/29 10:23:12;;;;;;;9.75;2.40;;;13.50;99.90;;;;;;4978338;28;20473;-46
2022/05/29 10:25:42;;;;;;;7.28;2.63;;;13.50;99.90;;;;;;4974841;28;20046;-48
2022/05/29 10:28:16;;;;;;;7.57;1.80;;;13.60;99.90;;;;;;4983486;28;20145;-46
2022/05/29 10:30:55;;;;;;;11.77;2.58;;;13.80;99.90;;;;;;4995386;28;20057;-46
2022/05/29 10:33:24;;;;;;;8.75;2.13;;;13.80;99.90;;;;;;5033439;28;20506;-44
2022/05/29 10:35:58;;;;;;;5.63;1.60;;;13.80;99.90;;;;;;5031431;28;20105;-47
2022/05/29 10:38:28;;;;;;;7.78;1.80;;;13.90;99.90;;;;;;5026216;28;20049;-44
2022/05/29 10:40:59;;;;;;;8.20;1.77;;;13.90;99.90;;;;;;5029079;28;20067;-44
2022/05/29 10:43:45;;;;;;;8.77;1.92;;;13.90;99.90;;;;;;5030068;28;20522;-45
2022/05/29 10:46:18;;;;;;;9.10;1.90;;;13.90;99.90;;;;;;5030237;28;20618;-45
2022/05/29 10:49:03;;;;;;;9.43;2.15;;;13.70;99.90;;;;;;5023401;28;20076;-45
2022/05/29 10:51:58;;;;;;;7.38;1.75;;;13.70;99.90;;;;;;5027049;28;20552;-45
2022/05/29 10:54:34;;;;;;;7.15;1.52;;;13.90;99.90;;;;;;4923513;28;20494;-48
2022/05/29 10:57:28;;;;;;;7.18;1.50;;;14.10;99.90;;;;;;4941392;28;20058;-46
2022/05/29 11:00:23;;;;;;;4.97;1.30;;;14.30;99.90;;;;;;4942513;28;20114;-45
2022/05/29 11:03:21;;;;;;;5.53;1.63;;;14.40;99.90;;;;;;4897463;29;20058;-45
2022/05/29 11:06:07;;;;;;;5.95;1.20;;;14.60;99.90;;;;;;4899101;29;20056;-45
2022/05/29 11:08:39;;;;;;;7.13;1.30;;;14.70;99.90;;;;;;4900517;29;20292;-45
2022/05/29 11:11:20;;;;;;;5.65;1.30;;;14.90;99.90;;;;;;4898197;29;20044;-44
2022/05/29 11:14:01;;;;;;;5.22;1.13;;;14.90;99.90;;;;;;4899610;29;20543;-43
2022/05/29 11:17:05;;;;;;;6.97;2.38;;;14.80;99.90;;;;;;4892815;29;20642;-48
2022/05/29 11:19:31;;;;;;;6.03;1.95;;;14.60;99.90;;;;;;4878145;29;20067;-46
2022/05/29 11:22:10;;;;;;;4.40;1.23;;;14.60;99.90;;;;;;4893215;29;20048;-47
2022/05/29 11:25:06;;;;;;;6.13;1.40;;;14.40;99.90;;;;;;4897607;29;20064;-46
2022/05/29 11:27:47;;;;;;;5.60;1.70;;;14.30;99.90;;;;;;4908256;29;20179;-48
2022/05/29 11:30:33;;;;;;;4.35;1.42;;;14.30;99.90;;;;;;4899164;29;20840;-47
2022/05/29 11:33:31;;;;;;;6.53;1.42;;;14.30;99.90;;;;;;4975897;28;20517;-45
2022/05/29 11:36:33;;;;;;;5.05;1.58;;;14.30;99.90;;;;;;4976483;28;20054;-48
2022/05/29 11:39:10;;;;;;;4.95;1.42;;;14.70;99.90;;;;;;4988449;28;20065;-49
2022/05/29 11:41:56;;;;;;;7.03;1.40;;;14.80;99.90;;;;;;5040022;28;20174;-46
2022/05/29 11:44:44;;;;;;;8.32;1.92;;;14.90;99.90;;;;;;4953454;28;20422;-46
2022/05/29 11:53:14;;;;;;;6.85;1.83;;;14.70;99.90;;;;;;4941758;28;20455;-47
2022/05/29 11:55:43;;;;;;;11.77;2.17;;;14.50;99.90;;;;;;4938439;28;20055;-44
2022/05/29 11:58:14;;;;;;;7.68;3.00;;;14.30;99.90;;;;;;4942033;28;20109;-46
2022/05/29 12:01:10;;;;;;;10.15;2.25;;;14.10;99.90;;;;;;4955574;28;20106;-46
2022/05/29 12:04:03;;;;;;;11.43;1.95;;;14.10;99.90;;;;;;4938407;28;20412;-46
2022/05/29 12:06:34;;;;;;;9.60;2.60;;;14.20;99.90;;;;;;4955044;28;20557;-45
2022/05/29 12:09:45;;;;;;;14.73;3.30;;;14.20;99.90;;;;;;4951725;28;20105;-45
2022/05/29 12:12:24;;;;;;;10.50;2.60;;;14.20;99.90;;;;;;4900747;29;20199;-45
2022/05/29 12:15:00;;;;;;;9.43;2.53;;;14.20;99.90;;;;;;4918519;29;20059;-45
2022/05/29 12:17:49;;;;;;;11.05;2.38;;;14.10;99.90;;;;;;4919875;29;20055;-45
2022/05/29 12:20:24;;;;;;;11.60;2.90;;;14.20;99.90;;;;;;4922472;29;20079;-44
2022/05/29 12:22:57;;;;;;;11.73;3.45;;;14.30;99.90;;;;;;4943491;28;20062;-46
2022/05/29 12:25:29;;;;;;;8.63;2.60;;;14.40;99.90;;;;;;4955709;28;20121;-47
2022/05/29 12:27:59;;;;;;;12.10;2.80;;;14.40;99.90;;;;;;4954508;28;20069;-46
2022/05/29 12:30:35;;;;;;;8.95;2.20;;;14.30;99.90;;;;;;4950328;28;20478;-46
2022/05/29 12:33:13;;;;;;;11.70;2.78;;;14.40;99.90;;;;;;4959397;28;20661;-44
2022/05/29 12:35:58;;;;;;;13.55;2.33;;;14.40;99.90;;;;;;4955160;28;20140;-46
2022/05/29 12:38:52;;;;;;;10.45;2.33;;;14.50;99.90;;;;;;4961146;28;20177;-49
2022/05/29 12:41:45;;;;;;;9.95;2.30;;;14.40;99.90;;;;;;4942857;28;20101;-45
2022/05/29 12:44:35;;;;;;;12.00;2.50;;;14.40;99.90;;;;;;4955005;28;20051;-47
2022/05/29 12:47:20;;;;;;;14.68;3.45;;;13.90;99.90;;;;;;5004057;28;20144;-44
2022/05/29 12:50:03;;;;;;;14.57;2.42;;;13.60;99.90;;;;;;5034267;28;20053;-46
2022/05/29 12:52:39;;;;;;;7.80;1.60;;;13.50;99.90;;;;;;5014704;28;20600;-50
2022/05/29 12:55:21;;;;;;;7.55;1.98;;;13.30;99.90;;;;;;5031865;28;20325;-49
2022/05/29 12:58:37;;;;;;;9.88;2.70;;;13.30;99.90;;;;;;5011906;28;20054;-49
2022/05/29 13:01:11;;;;;;;6.88;1.80;;;13.40;99.90;;;;;;5012896;28;20100;-46
2022/05/29 13:04:04;;;;;;;10.18;1.40;;;13.50;99.90;;;;;;5001282;28;20056;-45
2022/05/29 13:06:54;;;;;;;6.78;1.38;;;13.60;99.90;;;;;;5024559;28;20065;-47
2022/05/29 13:09:45;;;;;;;5.15;1.58;;;13.70;99.90;;;;;;5018276;28;20080;-46
2022/05/29 13:12:20;;;;;;;7.38;1.60;;;14.00;99.90;;;;;;5012076;28;20048;-47
2022/05/29 13:14:49;;;;;;;5.40;1.40;;;14.20;99.90;;;;;;5031457;28;20152;-48
2022/05/29 13:17:24;;;;;;;7.72;2.17;;;14.50;99.90;;;;;;5029471;28;21389;-46
2022/05/29 13:20:05;;;;;;;9.15;1.85;;;14.60;99.90;;;;;;5011940;28;20132;-46
2022/05/29 13:22:52;;;;;;;6.30;1.83;;;14.70;99.90;;;;;;5011913;28;20532;-48
2022/05/29 13:25:27;;;;;;;3.88;1.30;;;14.90;99.90;;;;;;5011561;28;20136;-47
2022/05/29 13:27:57;;;;;;;7.40;1.80;;;15.00;99.90;;;;;;5006607;28;20049;-52
2022/05/29 13:31:05;;;;;;;5.88;1.60;;;14.80;99.90;;;;;;5030474;28;20044;-44
2022/05/29 13:33:30;;;;;;;6.30;1.63;;;14.60;99.90;;;;;;5028075;28;20041;-46
2022/05/29 13:35:59;;;;;;;5.28;1.73;;;14.30;99.90;;;;;;5007854;28;20052;-46
2022/05/29 13:38:46;;;;;;;9.50;1.58;;;14.10;99.90;;;;;;5032521;28;20510;-45
2022/05/29 13:41:51;;;;;;;7.35;1.70;;;14.00;99.90;;;;;;5031201;28;20049;-49
2022/05/29 13:44:44;;;;;;;9.55;1.83;;;14.00;99.90;;;;;;4928798;29;20094;-45
2022/05/29 13:47:18;;;;;;;7.73;1.83;;;14.00;99.90;;;;;;4929165;29;20387;-46
2022/05/29 13:49:50;;;;;;;8.00;2.10;;;13.90;99.90;;;;;;4935169;29;20368;-46
2022/05/29 13:52:22;;;;;;;8.68;2.35;;;14.10;99.90;;;;;;4934678;29;20047;-47
2022/05/29 13:55:11;;;;;;;6.53;2.30;;;14.10;99.90;;;;;;4932273;29;20111;-47
2022/05/29 14:04:03;;;;;;;9.85;2.80;;;13.40;99.90;;;;;;4931141;29;20070;-46
2022/05/29 14:06:38;;;;;;;12.90;1.90;;;13.30;99.90;;;;;;4930907;28;20426;-45
2022/05/29 14:09:11;;;;;;;10.02;2.65;;;13.20;99.90;;;;;;4931092;29;20058;-47
2022/05/29 14:11:46;;;;;;;9.52;2.33;;;13.30;99.90;;;;;;4916265;29;20403;-45